sensor_id;sensor_type;location;lat;lon;timestamp;temperature;humidity
14277;DHT22;7222;57.346;12.150;2023-10-19T00:02:24;6.30;99.90
14277;DHT22;7222;57.346;12.150;2023-10-19T00:04:50;6.20;99.90
14277;DHT22;7222;57.346;12.150;2023-10-19T00:07:16;6.30;99.90
14277;DHT22;7222;57.346;12.150;2023-10-19T00:09:43;6.30;99.90
14277;DHT22;7222;57.346;12.150;2023-10-19T00:12:14;6.30;99.90
14277;DHT22;7222;57.346;12.150;2023-10-19T00:14:41;6.30;99.90
14277;DHT22;7222;57.346;12.150;2023-10-19T00:17:07;6.30;99.90
14277;DHT22;7222;57.346;12.150;2023-10-19T00:19:36;6.30;99.90
14277;DHT22;7222;57.346;12.150;2023-10-19T00:22:05;6.30;99.90
14277;DHT22;7222;57.346;12.150;2023-10-19T00:24:41;6.40;99.90
14277;DHT22;7222;57.346;12.150;2023-10-19T00:27:07;6.30;99.90
14277;DHT22;7222;57.346;12.150;2023-10-19T00:29:43;6.30;99.90
14277;DHT22;7222;57.346;12.150;2023-10-19T00:32:15;6.30;99.90
14277;DHT22;7222;57.346;12.150;2023-10-19T00:34:44;6.30;99.90
14277;DHT22;7222;57.346;12.150;2023-10-19T00:37:18;6.30;99.90
14277;DHT22;7222;57.346;12.150;2023-10-19T00:39:47;6.40;99.90
14277;DHT22;7222;57.346;12.150;2023-10-19T00:42:19;6.40;99.90
14277;DHT22;7222;57.346;12.150;2023-10-19T00:44:58;6.30;99.90
14277;DHT22;7222;57.346;12.150;2023-10-19T00:47:30;6.30;99.90
14277;DHT22;7222;57.346;12.150;2023-10-19T00:50:06;6.30;99.90
14277;DHT22;7222;57.346;12.150;2023-10-19T00:52:38;6.30;99.90
14277;DHT22;7222;57.346;12.150;2023-10-19T00:55:09;6.30;99.90
14277;DHT22;7222;57.346;12.150;2023-10-19T00:57:40;6.20;99.90
14277;DHT22;7222;57.346;12.150;2023-10-19T01:00:10;6.20;99.90
14277;DHT22;7222;57.346;12.150;2023-10-19T01:02:46;6.20;99.90
14277;DHT22;7222;57.346;12.150;2023-10-19T01:05:13;6.20;99.90
14277;DHT22;7222;57.346;12.150;2023-10-19T01:07:41;6.20;99.90
14277;DHT22;7222;57.346;12.150;2023-10-19T01:10:10;6.10;99.90
14277;DHT22;7222;57.346;12.150;2023-10-19T01:12:38;6.10;99.90
14277;DHT22;7222;57.346;12.150;2023-10-19T01:15:09;6.10;99.90
14277;DHT22;7222;57.346;12.150;2023-10-19T01:17:38;6.10;99.90
14277;DHT22;7222;57.346;12.150;2023-10-19T01:20:08;6.10;99.90
14277;DHT22;7222;57.346;12.150;2023-10-19T01:22:51;6.00;99.90
14277;DHT22;7222;57.346;12.150;2023-10-19T01:25:19;6.00;99.90
14277;DHT22;7222;57.346;12.150;2023-10-19T01:28:00;5.90;99.90
14277;DHT22;7222;57.346;12.150;2023-10-19T01:30:32;5.90;99.90
14277;DHT22;7222;57.346;12.150;2023-10-19T01:33:00;5.90;99.90
14277;DHT22;7222;57.346;12.150;2023-10-19T01:35:28;5.80;99.90
14277;DHT22;7222;57.346;12.150;2023-10-19T01:38:17;5.80;99.90
14277;DHT22;7222;57.346;12.150;2023-10-19T01:40:43;5.70;99.90
14277;DHT22;7222;57.346;12.150;2023-10-19T01:43:14;5.70;99.90
14277;DHT22;7222;57.346;12.150;2023-10-19T01:45:46;5.60;99.90
14277;DHT22;7222;57.346;12.150;2023-10-19T01:48:14;5.60;99.90
14277;DHT22;7222;57.346;12.150;2023-10-19T01:50:41;5.60;99.90
14277;DHT22;7222;57.346;12.150;2023-10-19T01:53:09;5.50;99.90
14277;DHT22;7222;57.346;12.150;2023-10-19T01:55:43;5.50;99.90
14277;DHT22;7222;57.346;12.150;2023-10-19T01:58:12;5.40;99.90
14277;DHT22;7222;57.346;12.150;2023-10-19T02:00:40;5.40;99.90
14277;DHT22;7222;57.346;12.150;2023-10-19T02:03:08;5.40;99.90
14277;DHT22;7222;57.346;12.150;2023-10-19T02:05:34;5.40;99.90
14277;DHT22;7222;57.346;12.150;2023-10-19T02:08:07;5.40;99.90
14277;DHT22;7222;57.346;12.150;2023-10-19T02:10:33;5.30;99.90
14277;DHT22;7222;57.346;12.150;2023-10-19T02:13:02;5.30;99.90
14277;DHT22;7222;57.346;12.150;2023-10-19T02:15:33;5.30;99.90
14277;DHT22;7222;57.346;12.150;2023-10-19T02:18:02;5.30;99.90
14277;DHT22;7222;57.346;12.150;2023-10-19T02:20:28;5.20;99.90
14277;DHT22;7222;57.346;12.150;2023-10-19T02:22:56;5.20;99.90
14277;DHT22;7222;57.346;12.150;2023-10-19T02:25:23;5.20;99.90
14277;DHT22;7222;57.346;12.150;2023-10-19T02:27:56;5.20;99.90
14277;DHT22;7222;57.346;12.150;2023-10-19T02:30:24;5.10;99.90
14277;DHT22;7222;57.346;12.150;2023-10-19T02:32:51;5.10;99.90
14277;DHT22;7222;57.346;12.150;2023-10-19T02:35:18;5.10;99.90
14277;DHT22;7222;57.346;12.150;2023-10-19T02:37:45;5.10;99.90
14277;DHT22;7222;57.346;12.150;2023-10-19T02:40:13;5.00;99.90
14277;DHT22;7222;57.346;12.150;2023-10-19T02:42:45;5.00;99.90
14277;DHT22;7222;57.346;12.150;2023-10-19T02:45:15;5.00;99.90
14277;DHT22;7222;57.346;12.150;2023-10-19T02:47:44;4.90;99.90
14277;DHT22;7222;57.346;12.150;2023-10-19T02:50:11;4.90;99.90
14277;DHT22;7222;57.346;12.150;2023-10-19T02:52:39;4.90;99.90
14277;DHT22;7222;57.346;12.150;2023-10-19T02:55:08;4.90;99.90
14277;DHT22;7222;57.346;12.150;2023-10-19T02:57:35;4.80;99.90
14277;DHT22;7222;57.346;12.150;2023-10-19T03:00:04;4.80;99.90
14277;DHT22;7222;57.346;12.150;2023-10-19T03:02:36;4.70;99.90
14277;DHT22;7222;57.346;12.150;2023-10-19T03:05:06;4.70;99.90
14277;DHT22;7222;57.346;12.150;2023-10-19T03:07:39;4.70;99.90
14277;DHT22;7222;57.346;12.150;2023-10-19T03:10:09;4.60;99.90
14277;DHT22;7222;57.346;12.150;2023-10-19T03:12:48;4.60;99.90
14277;DHT22;7222;57.346;12.150;2023-10-19T03:15:16;4.60;99.90
14277;DHT22;7222;57.346;12.150;2023-10-19T03:17:43;4.60;99.90
14277;DHT22;7222;57.346;12.150;2023-10-19T03:20:12;4.60;99.90
14277;DHT22;7222;57.346;12.150;2023-10-19T03:22:39;4.50;99.90
14277;DHT22;7222;57.346;12.150;2023-10-19T03:25:07;4.50;99.90
14277;DHT22;7222;57.346;12.150;2023-10-19T03:28:00;4.50;99.90
14277;DHT22;7222;57.346;12.150;2023-10-19T03:30:34;4.40;99.90
14277;DHT22;7222;57.346;12.150;2023-10-19T03:33:04;4.40;99.90
14277;DHT22;7222;57.346;12.150;2023-10-19T03:35:35;4.40;99.90
14277;DHT22;7222;57.346;12.150;2023-10-19T03:38:03;4.30;99.90
14277;DHT22;7222;57.346;12.150;2023-10-19T03:40:34;4.30;99.90
14277;DHT22;7222;57.346;12.150;2023-10-19T03:43:04;4.30;99.90
14277;DHT22;7222;57.346;12.150;2023-10-19T03:45:43;4.30;99.90
14277;DHT22;7222;57.346;12.150;2023-10-19T03:48:15;4.30;99.90
14277;DHT22;7222;57.346;12.150;2023-10-19T03:50:44;4.20;99.90
14277;DHT22;7222;57.346;12.150;2023-10-19T03:53:11;4.30;99.90
14277;DHT22;7222;57.346;12.150;2023-10-19T03:55:38;4.20;99.90
14277;DHT22;7222;57.346;12.150;2023-10-19T03:58:08;4.20;99.90
14277;DHT22;7222;57.346;12.150;2023-10-19T04:00:37;4.20;99.90
14277;DHT22;7222;57.346;12.150;2023-10-19T04:03:04;4.20;99.90
14277;DHT22;7222;57.346;12.150;2023-10-19T04:05:30;4.20;99.90
14277;DHT22;7222;57.346;12.150;2023-10-19T04:08:02;4.20;99.90
14277;DHT22;7222;57.346;12.150;2023-10-19T04:10:38;4.20;99.90
14277;DHT22;7222;57.346;12.150;2023-10-19T04:13:10;4.20;99.90
14277;DHT22;7222;57.346;12.150;2023-10-19T04:15:38;4.20;99.90
14277;DHT22;7222;57.346;12.150;2023-10-19T04:18:05;4.20;99.90
14277;DHT22;7222;57.346;12.150;2023-10-19T04:20:35;4.20;99.90
14277;DHT22;7222;57.346;12.150;2023-10-19T04:23:09;4.20;99.90
14277;DHT22;7222;57.346;12.150;2023-10-19T04:25:39;4.20;99.90
14277;DHT22;7222;57.346;12.150;2023-10-19T04:28:06;4.20;99.90
14277;DHT22;7222;57.346;12.150;2023-10-19T04:30:34;4.20;99.90
14277;DHT22;7222;57.346;12.150;2023-10-19T04:33:03;4.20;99.90
14277;DHT22;7222;57.346;12.150;2023-10-19T04:35:34;4.20;99.90
14277;DHT22;7222;57.346;12.150;2023-10-19T04:38:04;4.20;99.90
14277;DHT22;7222;57.346;12.150;2023-10-19T04:40:34;4.20;99.90
14277;DHT22;7222;57.346;12.150;2023-10-19T04:43:02;4.20;99.90
14277;DHT22;7222;57.346;12.150;2023-10-19T04:45:29;4.20;99.90
14277;DHT22;7222;57.346;12.150;2023-10-19T04:47:56;4.20;99.90
14277;DHT22;7222;57.346;12.150;2023-10-19T04:50:23;4.10;99.90
14277;DHT22;7222;57.346;12.150;2023-10-19T04:52:50;4.10;99.90
14277;DHT22;7222;57.346;12.150;2023-10-19T04:55:17;4.10;99.90
14277;DHT22;7222;57.346;12.150;2023-10-19T04:57:46;4.10;99.90
14277;DHT22;7222;57.346;12.150;2023-10-19T05:00:13;4.20;99.90
14277;DHT22;7222;57.346;12.150;2023-10-19T05:02:41;4.10;99.90
14277;DHT22;7222;57.346;12.150;2023-10-19T05:05:08;4.10;99.90
14277;DHT22;7222;57.346;12.150;2023-10-19T05:07:35;4.10;99.90
14277;DHT22;7222;57.346;12.150;2023-10-19T05:10:02;4.10;99.90
14277;DHT22;7222;57.346;12.150;2023-10-19T05:12:31;4.20;99.90
14277;DHT22;7222;57.346;12.150;2023-10-19T05:15:00;4.20;99.90
14277;DHT22;7222;57.346;12.150;2023-10-19T05:17:27;4.10;99.90
14277;DHT22;7222;57.346;12.150;2023-10-19T05:19:53;4.20;99.90
14277;DHT22;7222;57.346;12.150;2023-10-19T05:22:21;4.20;99.90
14277;DHT22;7222;57.346;12.150;2023-10-19T05:24:50;4.20;99.90
14277;DHT22;7222;57.346;12.150;2023-10-19T05:27:17;4.20;99.90
14277;DHT22;7222;57.346;12.150;2023-10-19T05:29:45;4.20;99.90
14277;DHT22;7222;57.346;12.150;2023-10-19T05:32:14;4.20;99.90
14277;DHT22;7222;57.346;12.150;2023-10-19T05:34:40;4.20;99.90
14277;DHT22;7222;57.346;12.150;2023-10-19T05:37:07;4.20;99.90
14277;DHT22;7222;57.346;12.150;2023-10-19T05:39:34;4.20;99.90
14277;DHT22;7222;57.346;12.150;2023-10-19T05:42:01;4.20;99.90
14277;DHT22;7222;57.346;12.150;2023-10-19T05:44:29;4.20;99.90
14277;DHT22;7222;57.346;12.150;2023-10-19T05:46:56;4.30;99.90
14277;DHT22;7222;57.346;12.150;2023-10-19T05:49:25;4.30;99.90
14277;DHT22;7222;57.346;12.150;2023-10-19T05:51:53;4.20;99.90
14277;DHT22;7222;57.346;12.150;2023-10-19T05:54:20;4.30;99.90
14277;DHT22;7222;57.346;12.150;2023-10-19T05:56:49;4.30;99.90
14277;DHT22;7222;57.346;12.150;2023-10-19T05:59:16;4.30;99.90
14277;DHT22;7222;57.346;12.150;2023-10-19T06:01:42;4.40;99.90
14277;DHT22;7222;57.346;12.150;2023-10-19T06:04:12;4.40;99.90
14277;DHT22;7222;57.346;12.150;2023-10-19T06:06:40;4.40;99.90
14277;DHT22;7222;57.346;12.150;2023-10-19T06:09:08;4.40;99.90
14277;DHT22;7222;57.346;12.150;2023-10-19T06:11:35;4.40;99.90
14277;DHT22;7222;57.346;12.150;2023-10-19T06:14:03;4.40;99.90
14277;DHT22;7222;57.346;12.150;2023-10-19T06:16:32;4.40;99.90
14277;DHT22;7222;57.346;12.150;2023-10-19T06:18:59;4.40;99.90
14277;DHT22;7222;57.346;12.150;2023-10-19T06:21:26;4.40;99.90
14277;DHT22;7222;57.346;12.150;2023-10-19T06:23:55;4.40;99.90
14277;DHT22;7222;57.346;12.150;2023-10-19T06:26:21;4.40;99.90
14277;DHT22;7222;57.346;12.150;2023-10-19T06:28:48;4.40;99.90
14277;DHT22;7222;57.346;12.150;2023-10-19T06:31:16;4.40;99.90
14277;DHT22;7222;57.346;12.150;2023-10-19T06:33:43;4.40;99.90
14277;DHT22;7222;57.346;12.150;2023-10-19T06:36:10;4.40;99.90
14277;DHT22;7222;57.346;12.150;2023-10-19T06:38:37;4.40;99.90
14277;DHT22;7222;57.346;12.150;2023-10-19T06:41:12;4.40;99.90
14277;DHT22;7222;57.346;12.150;2023-10-19T06:43:39;4.40;99.90
14277;DHT22;7222;57.346;12.150;2023-10-19T06:46:07;4.40;99.90
14277;DHT22;7222;57.346;12.150;2023-10-19T06:48:37;4.40;99.90
14277;DHT22;7222;57.346;12.150;2023-10-19T06:51:03;4.40;99.90
14277;DHT22;7222;57.346;12.150;2023-10-19T06:53:31;4.50;99.90
14277;DHT22;7222;57.346;12.150;2023-10-19T06:55:59;4.50;99.90
14277;DHT22;7222;57.346;12.150;2023-10-19T06:58:27;4.50;99.90
14277;DHT22;7222;57.346;12.150;2023-10-19T07:00:55;4.50;99.90
14277;DHT22;7222;57.346;12.150;2023-10-19T07:03:25;4.50;99.90
14277;DHT22;7222;57.346;12.150;2023-10-19T07:05:54;4.50;99.90
14277;DHT22;7222;57.346;12.150;2023-10-19T07:08:22;4.50;99.90
14277;DHT22;7222;57.346;12.150;2023-10-19T07:10:49;4.60;99.90
14277;DHT22;7222;57.346;12.150;2023-10-19T07:13:16;4.60;99.90
14277;DHT22;7222;57.346;12.150;2023-10-19T07:15:46;4.60;99.90
14277;DHT22;7222;57.346;12.150;2023-10-19T07:18:14;4.60;99.90
14277;DHT22;7222;57.346;12.150;2023-10-19T07:20:41;4.60;99.90
14277;DHT22;7222;57.346;12.150;2023-10-19T07:23:09;4.60;99.90
14277;DHT22;7222;57.346;12.150;2023-10-19T07:25:45;4.60;99.90
14277;DHT22;7222;57.346;12.150;2023-10-19T07:28:14;4.60;99.90
14277;DHT22;7222;57.346;12.150;2023-10-19T07:30:42;4.70;99.90
14277;DHT22;7222;57.346;12.150;2023-10-19T07:33:11;4.60;99.90
14277;DHT22;7222;57.346;12.150;2023-10-19T07:35:43;4.70;99.90
14277;DHT22;7222;57.346;12.150;2023-10-19T07:38:12;4.70;99.90
14277;DHT22;7222;57.346;12.150;2023-10-19T07:40:40;4.70;99.90
14277;DHT22;7222;57.346;12.150;2023-10-19T07:43:06;4.70;99.90
14277;DHT22;7222;57.346;12.150;2023-10-19T07:45:34;4.70;99.90
14277;DHT22;7222;57.346;12.150;2023-10-19T07:48:02;4.70;99.90
14277;DHT22;7222;57.346;12.150;2023-10-19T07:50:34;4.80;99.90
14277;DHT22;7222;57.346;12.150;2023-10-19T07:53:01;4.70;99.90
14277;DHT22;7222;57.346;12.150;2023-10-19T07:55:29;4.70;99.90
14277;DHT22;7222;57.346;12.150;2023-10-19T07:57:57;4.80;99.90
14277;DHT22;7222;57.346;12.150;2023-10-19T08:00:26;4.80;99.90
14277;DHT22;7222;57.346;12.150;2023-10-19T08:02:55;4.80;99.90
14277;DHT22;7222;57.346;12.150;2023-10-19T08:05:22;4.80;99.90
14277;DHT22;7222;57.346;12.150;2023-10-19T08:07:51;4.80;99.90
14277;DHT22;7222;57.346;12.150;2023-10-19T08:10:19;4.80;99.90
14277;DHT22;7222;57.346;12.150;2023-10-19T08:12:47;4.90;99.90
14277;DHT22;7222;57.346;12.150;2023-10-19T08:15:16;4.90;99.90
14277;DHT22;7222;57.346;12.150;2023-10-19T08:17:44;5.00;99.90
14277;DHT22;7222;57.346;12.150;2023-10-19T08:20:13;5.00;99.90
14277;DHT22;7222;57.346;12.150;2023-10-19T08:22:50;5.00;99.90
14277;DHT22;7222;57.346;12.150;2023-10-19T08:25:18;5.10;99.90
14277;DHT22;7222;57.346;12.150;2023-10-19T08:27:46;5.10;99.90
14277;DHT22;7222;57.346;12.150;2023-10-19T08:30:15;5.20;99.90
14277;DHT22;7222;57.346;12.150;2023-10-19T08:32:44;5.20;99.90
14277;DHT22;7222;57.346;12.150;2023-10-19T08:35:14;5.30;99.90
14277;DHT22;7222;57.346;12.150;2023-10-19T08:37:41;5.30;99.90
14277;DHT22;7222;57.346;12.150;2023-10-19T08:40:11;5.40;99.90
14277;DHT22;7222;57.346;12.150;2023-10-19T08:42:40;5.40;99.90
14277;DHT22;7222;57.346;12.150;2023-10-19T08:45:08;5.40;99.90
14277;DHT22;7222;57.346;12.150;2023-10-19T08:47:40;5.40;99.90
14277;DHT22;7222;57.346;12.150;2023-10-19T08:50:10;5.50;99.90
14277;DHT22;7222;57.346;12.150;2023-10-19T08:52:38;5.50;99.90
14277;DHT22;7222;57.346;12.150;2023-10-19T08:55:07;5.50;99.90
14277;DHT22;7222;57.346;12.150;2023-10-19T08:57:36;5.60;99.90
14277;DHT22;7222;57.346;12.150;2023-10-19T09:00:05;5.60;99.90
14277;DHT22;7222;57.346;12.150;2023-10-19T09:02:33;5.60;99.90
14277;DHT22;7222;57.346;12.150;2023-10-19T09:05:06;5.70;99.90
14277;DHT22;7222;57.346;12.150;2023-10-19T09:07:34;5.70;99.90
14277;DHT22;7222;57.346;12.150;2023-10-19T09:10:01;5.80;99.90
14277;DHT22;7222;57.346;12.150;2023-10-19T09:12:30;5.90;99.90
14277;DHT22;7222;57.346;12.150;2023-10-19T09:14:58;5.80;99.90
14277;DHT22;7222;57.346;12.150;2023-10-19T09:17:28;5.90;99.90
14277;DHT22;7222;57.346;12.150;2023-10-19T09:19:57;5.90;99.90
14277;DHT22;7222;57.346;12.150;2023-10-19T09:22:25;6.00;99.90
14277;DHT22;7222;57.346;12.150;2023-10-19T09:24:52;6.00;99.90
14277;DHT22;7222;57.346;12.150;2023-10-19T09:27:21;6.00;99.90
14277;DHT22;7222;57.346;12.150;2023-10-19T09:29:49;6.10;99.90
14277;DHT22;7222;57.346;12.150;2023-10-19T09:32:18;6.10;99.90
14277;DHT22;7222;57.346;12.150;2023-10-19T09:34:45;6.10;99.90
14277;DHT22;7222;57.346;12.150;2023-10-19T09:37:14;6.10;99.90
14277;DHT22;7222;57.346;12.150;2023-10-19T09:39:43;6.10;99.90
14277;DHT22;7222;57.346;12.150;2023-10-19T09:42:11;6.10;99.90
14277;DHT22;7222;57.346;12.150;2023-10-19T09:44:43;6.20;99.90
14277;DHT22;7222;57.346;12.150;2023-10-19T09:47:11;6.30;99.90
14277;DHT22;7222;57.346;12.150;2023-10-19T09:49:42;6.30;99.90
14277;DHT22;7222;57.346;12.150;2023-10-19T09:52:10;6.30;99.90
14277;DHT22;7222;57.346;12.150;2023-10-19T09:54:49;6.40;99.90
14277;DHT22;7222;57.346;12.150;2023-10-19T09:57:23;6.50;99.90
14277;DHT22;7222;57.346;12.150;2023-10-19T09:59:58;6.50;99.90
14277;DHT22;7222;57.346;12.150;2023-10-19T10:02:32;6.50;99.90
14277;DHT22;7222;57.346;12.150;2023-10-19T10:05:01;6.60;99.90
14277;DHT22;7222;57.346;12.150;2023-10-19T10:07:30;6.60;99.90
14277;DHT22;7222;57.346;12.150;2023-10-19T10:09:57;6.70;99.90
14277;DHT22;7222;57.346;12.150;2023-10-19T10:12:26;6.80;99.90
14277;DHT22;7222;57.346;12.150;2023-10-19T10:14:58;6.80;99.90
14277;DHT22;7222;57.346;12.150;2023-10-19T10:17:27;6.80;99.90
14277;DHT22;7222;57.346;12.150;2023-10-19T10:19:55;6.90;99.90
14277;DHT22;7222;57.346;12.150;2023-10-19T10:22:26;6.90;99.90
14277;DHT22;7222;57.346;12.150;2023-10-19T10:24:56;7.00;99.90
14277;DHT22;7222;57.346;12.150;2023-10-19T10:27:23;7.10;99.90
14277;DHT22;7222;57.346;12.150;2023-10-19T10:29:54;7.10;99.90
14277;DHT22;7222;57.346;12.150;2023-10-19T10:32:43;7.10;29.50
14277;DHT22;7222;57.346;12.150;2023-10-19T10:38:17;7.40;1.00
14277;DHT22;7222;57.346;12.150;2023-10-19T10:40:44;7.60;1.00
14277;DHT22;7222;57.346;12.150;2023-10-19T10:43:11;7.80;99.90
14277;DHT22;7222;57.346;12.150;2023-10-19T10:45:38;8.00;99.90
14277;DHT22;7222;57.346;12.150;2023-10-19T10:48:11;8.00;99.90
14277;DHT22;7222;57.346;12.150;2023-10-19T10:50:38;8.30;99.90
14277;DHT22;7222;57.346;12.150;2023-10-19T10:53:06;8.30;99.90
14277;DHT22;7222;57.346;12.150;2023-10-19T10:55:35;8.40;1.00
14277;DHT22;7222;57.346;12.150;2023-10-19T10:58:02;8.40;1.00
14277;DHT22;7222;57.346;12.150;2023-10-19T11:00:28;8.40;99.90
14277;DHT22;7222;57.346;12.150;2023-10-19T11:03:02;8.50;99.90
14277;DHT22;7222;57.346;12.150;2023-10-19T11:05:30;8.70;1.00
14277;DHT22;7222;57.346;12.150;2023-10-19T11:08:06;8.70;1.00
14277;DHT22;7222;57.346;12.150;2023-10-19T11:10:36;8.60;99.90
14277;DHT22;7222;57.346;12.150;2023-10-19T11:13:04;8.50;1.00
14277;DHT22;7222;57.346;12.150;2023-10-19T11:15:31;8.60;1.00
14277;DHT22;7222;57.346;12.150;2023-10-19T11:17:58;8.60;1.00
14277;DHT22;7222;57.346;12.150;2023-10-19T11:20:26;8.70;1.00
14277;DHT22;7222;57.346;12.150;2023-10-19T11:22:55;8.70;72.60
14277;DHT22;7222;57.346;12.150;2023-10-19T11:25:24;8.60;99.90
14277;DHT22;7222;57.346;12.150;2023-10-19T11:27:55;8.60;1.00
14277;DHT22;7222;57.346;12.150;2023-10-19T11:30:26;8.60;99.90
14277;DHT22;7222;57.346;12.150;2023-10-19T11:32:53;8.60;99.90
14277;DHT22;7222;57.346;12.150;2023-10-19T11:35:24;8.70;99.90
14277;DHT22;7222;57.346;12.150;2023-10-19T11:37:52;8.60;99.90
14277;DHT22;7222;57.346;12.150;2023-10-19T11:40:20;8.70;1.00
14277;DHT22;7222;57.346;12.150;2023-10-19T11:42:47;8.60;1.00
14277;DHT22;7222;57.346;12.150;2023-10-19T11:45:16;8.70;99.90
14277;DHT22;7222;57.346;12.150;2023-10-19T11:47:43;8.70;99.90
14277;DHT22;7222;57.346;12.150;2023-10-19T11:50:10;8.70;1.00
14277;DHT22;7222;57.346;12.150;2023-10-19T11:52:40;8.80;99.90
14277;DHT22;7222;57.346;12.150;2023-10-19T11:55:08;8.80;1.00
14277;DHT22;7222;57.346;12.150;2023-10-19T11:57:35;8.90;99.90
14277;DHT22;7222;57.346;12.150;2023-10-19T12:00:02;8.90;1.00
14277;DHT22;7222;57.346;12.150;2023-10-19T12:02:35;8.90;1.00
14277;DHT22;7222;57.346;12.150;2023-10-19T12:05:05;9.10;1.00
14277;DHT22;7222;57.346;12.150;2023-10-19T12:07:35;9.10;1.00
14277;DHT22;7222;57.346;12.150;2023-10-19T12:10:03;9.30;1.00
14277;DHT22;7222;57.346;12.150;2023-10-19T12:12:30;9.40;1.00
14277;DHT22;7222;57.346;12.150;2023-10-19T12:14:58;9.40;1.00
14277;DHT22;7222;57.346;12.150;2023-10-19T12:17:24;9.50;1.00
14277;DHT22;7222;57.346;12.150;2023-10-19T12:19:54;9.50;99.90
14277;DHT22;7222;57.346;12.150;2023-10-19T12:22:21;9.40;1.00
14277;DHT22;7222;57.346;12.150;2023-10-19T12:24:49;9.50;1.00
14277;DHT22;7222;57.346;12.150;2023-10-19T12:27:17;9.40;1.00
14277;DHT22;7222;57.346;12.150;2023-10-19T12:29:44;9.40;1.00
14277;DHT22;7222;57.346;12.150;2023-10-19T12:32:12;9.30;1.00
14277;DHT22;7222;57.346;12.150;2023-10-19T12:34:40;9.40;1.00
14277;DHT22;7222;57.346;12.150;2023-10-19T12:37:08;9.40;1.00
14277;DHT22;7222;57.346;12.150;2023-10-19T12:39:38;9.40;1.00
14277;DHT22;7222;57.346;12.150;2023-10-19T12:42:11;9.40;19.80
14277;DHT22;7222;57.346;12.150;2023-10-19T12:44:39;9.40;99.90
14277;DHT22;7222;57.346;12.150;2023-10-19T12:47:07;9.30;1.00
14277;DHT22;7222;57.346;12.150;2023-10-19T12:49:36;9.40;1.00
14277;DHT22;7222;57.346;12.150;2023-10-19T12:52:03;9.40;99.90
14277;DHT22;7222;57.346;12.150;2023-10-19T12:54:34;9.60;44.00
14277;DHT22;7222;57.346;12.150;2023-10-19T12:57:01;9.70;10.30
14277;DHT22;7222;57.346;12.150;2023-10-19T12:59:32;9.90;1.00
14277;DHT22;7222;57.346;12.150;2023-10-19T13:01:59;10.00;1.00
14277;DHT22;7222;57.346;12.150;2023-10-19T13:04:28;10.20;1.00
14277;DHT22;7222;57.346;12.150;2023-10-19T13:06:56;10.30;1.00
14277;DHT22;7222;57.346;12.150;2023-10-19T13:09:24;10.30;1.00
14277;DHT22;7222;57.346;12.150;2023-10-19T13:11:58;10.20;99.90
14277;DHT22;7222;57.346;12.150;2023-10-19T13:14:27;9.90;1.00
14277;DHT22;7222;57.346;12.150;2023-10-19T13:16:54;9.80;1.00
14277;DHT22;7222;57.346;12.150;2023-10-19T13:19:21;9.70;82.50
14277;DHT22;7222;57.346;12.150;2023-10-19T13:21:51;9.80;1.00
14277;DHT22;7222;57.346;12.150;2023-10-19T13:24:18;9.80;1.00
14277;DHT22;7222;57.346;12.150;2023-10-19T13:26:46;9.80;1.00
14277;DHT22;7222;57.346;12.150;2023-10-19T13:29:14;9.70;1.00
14277;DHT22;7222;57.346;12.150;2023-10-19T13:31:43;9.70;99.90
14277;DHT22;7222;57.346;12.150;2023-10-19T13:34:15;9.70;1.00
14277;DHT22;7222;57.346;12.150;2023-10-19T13:36:41;9.70;1.00
14277;DHT22;7222;57.346;12.150;2023-10-19T13:39:10;9.80;99.90
14277;DHT22;7222;57.346;12.150;2023-10-19T13:41:42;10.00;99.90
14277;DHT22;7222;57.346;12.150;2023-10-19T13:44:09;10.10;99.90
14277;DHT22;7222;57.346;12.150;2023-10-19T13:46:38;10.40;99.90
14277;DHT22;7222;57.346;12.150;2023-10-19T13:49:05;10.30;99.90
14277;DHT22;7222;57.346;12.150;2023-10-19T13:51:32;10.30;99.90
14277;DHT22;7222;57.346;12.150;2023-10-19T13:53:59;10.40;99.90
14277;DHT22;7222;57.346;12.150;2023-10-19T13:56:27;10.00;99.90
14277;DHT22;7222;57.346;12.150;2023-10-19T13:58:53;9.80;99.90
14277;DHT22;7222;57.346;12.150;2023-10-19T14:01:21;9.80;99.90
14277;DHT22;7222;57.346;12.150;2023-10-19T14:03:52;9.70;99.90
14277;DHT22;7222;57.346;12.150;2023-10-19T14:06:21;9.60;99.90
14277;DHT22;7222;57.346;12.150;2023-10-19T14:08:49;9.40;1.00
14277;DHT22;7222;57.346;12.150;2023-10-19T14:11:16;9.10;1.00
14277;DHT22;7222;57.346;12.150;2023-10-19T14:13:43;8.90;99.90
14277;DHT22;7222;57.346;12.150;2023-10-19T14:16:10;8.90;1.00
14277;DHT22;7222;57.346;12.150;2023-10-19T14:18:37;9.10;1.00
14277;DHT22;7222;57.346;12.150;2023-10-19T14:21:13;9.00;1.00
14277;DHT22;7222;57.346;12.150;2023-10-19T14:23:40;9.10;1.00
14277;DHT22;7222;57.346;12.150;2023-10-19T14:26:09;9.00;1.00
14277;DHT22;7222;57.346;12.150;2023-10-19T14:28:36;8.80;1.00
14277;DHT22;7222;57.346;12.150;2023-10-19T14:31:03;8.60;1.00
14277;DHT22;7222;57.346;12.150;2023-10-19T14:33:33;8.60;1.00
14277;DHT22;7222;57.346;12.150;2023-10-19T14:36:01;8.50;87.60
14277;DHT22;7222;57.346;12.150;2023-10-19T14:38:30;8.50;74.80
14277;DHT22;7222;57.346;12.150;2023-10-19T14:40:56;8.40;29.00
14277;DHT22;7222;57.346;12.150;2023-10-19T14:43:23;8.40;99.90
14277;DHT22;7222;57.346;12.150;2023-10-19T14:45:54;8.20;1.00
14277;DHT22;7222;57.346;12.150;2023-10-19T14:48:22;8.20;99.90
14277;DHT22;7222;57.346;12.150;2023-10-19T14:50:49;8.10;99.90
14277;DHT22;7222;57.346;12.150;2023-10-19T14:53:17;8.00;99.90
14277;DHT22;7222;57.346;12.150;2023-10-19T14:55:45;7.90;99.90
14277;DHT22;7222;57.346;12.150;2023-10-19T14:58:12;7.80;99.90
14277;DHT22;7222;57.346;12.150;2023-10-19T15:00:39;7.70;81.90
14277;DHT22;7222;57.346;12.150;2023-10-19T15:03:10;7.70;1.00
14277;DHT22;7222;57.346;12.150;2023-10-19T15:05:37;7.50;99.90
14277;DHT22;7222;57.346;12.150;2023-10-19T15:08:06;7.60;99.90
14277;DHT22;7222;57.346;12.150;2023-10-19T15:10:35;7.40;99.90
14277;DHT22;7222;57.346;12.150;2023-10-19T15:13:08;7.40;1.00
14277;DHT22;7222;57.346;12.150;2023-10-19T15:15:34;7.20;99.90
14277;DHT22;7222;57.346;12.150;2023-10-19T15:18:01;7.20;99.90
14277;DHT22;7222;57.346;12.150;2023-10-19T15:20:29;7.20;1.00
14277;DHT22;7222;57.346;12.150;2023-10-19T15:22:58;7.00;99.90
14277;DHT22;7222;57.346;12.150;2023-10-19T15:25:25;7.00;1.00
14277;DHT22;7222;57.346;12.150;2023-10-19T15:27:52;7.00;1.00
14277;DHT22;7222;57.346;12.150;2023-10-19T15:30:21;6.80;1.00
14277;DHT22;7222;57.346;12.150;2023-10-19T15:32:49;6.70;1.00
14277;DHT22;7222;57.346;12.150;2023-10-19T15:35:17;6.60;1.00
14277;DHT22;7222;57.346;12.150;2023-10-19T15:37:47;6.50;1.00
14277;DHT22;7222;57.346;12.150;2023-10-19T15:40:15;6.50;1.00
14277;DHT22;7222;57.346;12.150;2023-10-19T15:42:42;6.40;3.20
14277;DHT22;7222;57.346;12.150;2023-10-19T15:45:10;6.40;99.90
14277;DHT22;7222;57.346;12.150;2023-10-19T15:47:39;6.20;1.00
14277;DHT22;7222;57.346;12.150;2023-10-19T15:50:08;6.20;99.90
14277;DHT22;7222;57.346;12.150;2023-10-19T15:52:35;6.20;99.90
14277;DHT22;7222;57.346;12.150;2023-10-19T15:55:06;6.10;99.90
14277;DHT22;7222;57.346;12.150;2023-10-19T15:57:33;5.90;1.00
14277;DHT22;7222;57.346;12.150;2023-10-19T16:00:00;5.90;1.00
14277;DHT22;7222;57.346;12.150;2023-10-19T16:02:27;6.00;99.90